GIA100 NTAA-PHNL
Flight info
| Callsign | GIA100 |
|---|---|
| Flight time | N/A |
| Altitude | 36000 |
| Route | DCT TIAMA B595 KOA V20 HOKLA JULLE5 |
| Aircraft | B77W/H-SDE1E2E3FGHIJ2J3J4J5M1RWXY/LB1D1 |
Departure
| Time | 2026-05-01 07:52 |
|---|---|
| Airport | Fa'a'ā International Airport (NTAA) |
Arrival
| Time | N/A |
|---|---|
| Airport | Daniel K. Inouye International Airport (PHNL) |
| Time | Latitude | Longitude | Altitude | Speed | Heading |
|---|---|---|---|---|---|
| 2026-05-01 07:23 | -17.55813 | -149.60960 | 35 ft | 0 kts | 145° |
| 2026-05-01 07:41 | -17.55811 | -149.60962 | 35 ft | 4 kts | 145° |
| 2026-05-01 07:41 | -17.55797 | -149.60973 | 34 ft | 2 kts | 144° |
| 2026-05-01 07:41 | -17.55772 | -149.60991 | 34 ft | 2 kts | 149° |
| 2026-05-01 07:42 | -17.55758 | -149.60996 | 34 ft | 2 kts | 181° |
| 2026-05-01 07:42 | -17.55743 | -149.60992 | 34 ft | 2 kts | 207° |
| 2026-05-01 07:42 | -17.55731 | -149.60983 | 33 ft | 2 kts | 232° |
| 2026-05-01 07:42 | -17.55723 | -149.60969 | 33 ft | 2 kts | 239° |
| 2026-05-01 07:43 | -17.55716 | -149.60957 | 32 ft | 2 kts | 236° |
| 2026-05-01 07:43 | -17.55707 | -149.60945 | 32 ft | 1 kts | 234° |
| 2026-05-01 07:43 | -17.55706 | -149.60944 | 32 ft | 0 kts | 234° |
| 2026-05-01 07:47 | -17.55747 | -149.61003 | 34 ft | 0 kts | 236° |
| 2026-05-01 07:47 | -17.55754 | -149.61014 | 34 ft | 8 kts | 238° |
| 2026-05-01 07:48 | -17.55697 | -149.61154 | 30 ft | 14 kts | 283° |
| 2026-05-01 07:48 | -17.55742 | -149.61264 | 30 ft | 19 kts | 233° |
| 2026-05-01 07:48 | -17.55829 | -149.61391 | 28 ft | 22 kts | 234° |
| 2026-05-01 07:49 | -17.55919 | -149.61519 | 26 ft | 21 kts | 234° |
| 2026-05-01 07:49 | -17.56115 | -149.61803 | 22 ft | 24 kts | 235° |
| 2026-05-01 07:49 | -17.56197 | -149.61945 | 20 ft | 12 kts | 257° |
| 2026-05-01 07:50 | -17.56224 | -149.62003 | 20 ft | 6 kts | 165° |
| 2026-05-01 07:50 | -17.56204 | -149.61934 | 20 ft | 4 kts | 54° |
| 2026-05-01 07:50 | -17.56181 | -149.61900 | 21 ft | 9 kts | 54° |
| 2026-05-01 07:51 | -17.56096 | -149.61772 | 22 ft | 49 kts | 56° |
| 2026-05-01 07:51 | -17.55717 | -149.61223 | 30 ft | 136 kts | 54° |
| 2026-05-01 07:51 | -17.55029 | -149.60234 | 269 ft | 191 kts | 54° |
| 2026-05-01 07:52 | -17.53435 | -149.58179 | 2360 ft | 176 kts | 36° |
| 2026-05-01 07:52 | -17.52226 | -149.57729 | 2788 ft | 195 kts | 5° |
| 2026-05-01 07:52 | -17.50838 | -149.57881 | 3361 ft | 206 kts | 355° |
| 2026-05-01 07:53 | -17.47750 | -149.58366 | 4430 ft | 240 kts | 354° |
| 2026-05-01 07:53 | -17.46042 | -149.58637 | 5040 ft | 256 kts | 354° |
| 2026-05-01 07:53 | -17.44215 | -149.58926 | 5743 ft | 269 kts | 354° |
| 2026-05-01 07:53 | -17.42362 | -149.59222 | 6632 ft | 273 kts | 354° |
| 2026-05-01 07:54 | -17.38540 | -149.59831 | 8370 ft | 282 kts | 354° |
| 2026-05-01 07:55 | -17.32590 | -149.60779 | 10672 ft | 303 kts | 353° |
| 2026-05-01 07:55 | -17.28180 | -149.61479 | 11721 ft | 336 kts | 353° |
| 2026-05-01 07:56 | -17.22465 | -149.62387 | 12970 ft | 372 kts | 353° |